sensor_id;sensor_type;location;lat;lon;timestamp;temperature;humidity
578;DHT22;275;48.492;9.214;2023-02-22T00:01:11;9.60;32.30
578;DHT22;275;48.492;9.214;2023-02-22T00:03:48;9.70;31.80
578;DHT22;275;48.492;9.214;2023-02-22T00:06:20;9.90;31.40
578;DHT22;275;48.492;9.214;2023-02-22T00:08:49;9.70;31.80
578;DHT22;275;48.492;9.214;2023-02-22T00:11:17;9.30;32.70
578;DHT22;275;48.492;9.214;2023-02-22T00:13:45;9.40;32.50
578;DHT22;275;48.492;9.214;2023-02-22T00:16:14;9.60;31.90
578;DHT22;275;48.492;9.214;2023-02-22T00:18:42;9.50;32.20
578;DHT22;275;48.492;9.214;2023-02-22T00:21:10;8.60;34.60
578;DHT22;275;48.492;9.214;2023-02-22T00:23:42;8.10;36.20
578;DHT22;275;48.492;9.214;2023-02-22T00:26:12;7.90;37.00
578;DHT22;275;48.492;9.214;2023-02-22T00:28:43;8.20;36.40
578;DHT22;275;48.492;9.214;2023-02-22T00:31:10;8.90;34.40
578;DHT22;275;48.492;9.214;2023-02-22T00:33:38;9.20;33.50
578;DHT22;275;48.492;9.214;2023-02-22T00:36:05;9.60;32.50
578;DHT22;275;48.492;9.214;2023-02-22T00:38:32;9.80;31.90
578;DHT22;275;48.492;9.214;2023-02-22T00:41:01;9.80;32.00
578;DHT22;275;48.492;9.214;2023-02-22T00:43:28;9.70;32.20
578;DHT22;275;48.492;9.214;2023-02-22T00:45:55;9.90;31.80
578;DHT22;275;48.492;9.214;2023-02-22T00:48:22;10.00;30.50
578;DHT22;275;48.492;9.214;2023-02-22T00:50:49;9.90;31.40
578;DHT22;275;48.492;9.214;2023-02-22T00:53:19;10.10;30.10
578;DHT22;275;48.492;9.214;2023-02-22T00:55:46;9.90;31.40
578;DHT22;275;48.492;9.214;2023-02-22T00:58:14;9.40;32.50
578;DHT22;275;48.492;9.214;2023-02-22T01:00:43;9.30;32.90
578;DHT22;275;48.492;9.214;2023-02-22T01:03:12;9.30;33.10
578;DHT22;275;48.492;9.214;2023-02-22T01:05:40;9.30;33.50
578;DHT22;275;48.492;9.214;2023-02-22T01:08:08;9.30;33.50
578;DHT22;275;48.492;9.214;2023-02-22T01:10:36;9.30;33.50
578;DHT22;275;48.492;9.214;2023-02-22T01:13:03;9.30;33.50
578;DHT22;275;48.492;9.214;2023-02-22T01:15:35;9.20;33.70
578;DHT22;275;48.492;9.214;2023-02-22T01:18:03;9.20;33.70
578;DHT22;275;48.492;9.214;2023-02-22T01:20:31;9.00;34.10
578;DHT22;275;48.492;9.214;2023-02-22T01:23:00;8.80;35.00
578;DHT22;275;48.492;9.214;2023-02-22T01:25:29;8.50;35.60
578;DHT22;275;48.492;9.214;2023-02-22T01:27:57;8.60;35.70
578;DHT22;275;48.492;9.214;2023-02-22T01:30:26;8.70;35.40
578;DHT22;275;48.492;9.214;2023-02-22T01:32:55;8.70;35.70
578;DHT22;275;48.492;9.214;2023-02-22T01:35:24;8.40;36.40
578;DHT22;275;48.492;9.214;2023-02-22T01:37:52;7.90;37.50
578;DHT22;275;48.492;9.214;2023-02-22T01:40:22;8.00;37.50
578;DHT22;275;48.492;9.214;2023-02-22T01:42:51;8.20;36.70
578;DHT22;275;48.492;9.214;2023-02-22T01:45:49;8.80;35.10
578;DHT22;275;48.492;9.214;2023-02-22T01:48:27;9.00;34.20
578;DHT22;275;48.492;9.214;2023-02-22T01:50:58;9.00;34.10
578;DHT22;275;48.492;9.214;2023-02-22T01:53:30;8.80;34.40
578;DHT22;275;48.492;9.214;2023-02-22T01:55:58;8.70;34.80
578;DHT22;275;48.492;9.214;2023-02-22T01:58:27;8.80;34.50
578;DHT22;275;48.492;9.214;2023-02-22T02:00:56;8.90;34.10
578;DHT22;275;48.492;9.214;2023-02-22T02:03:27;9.20;33.70
578;DHT22;275;48.492;9.214;2023-02-22T02:05:57;9.50;33.10
578;DHT22;275;48.492;9.214;2023-02-22T02:08:30;9.30;33.50
578;DHT22;275;48.492;9.214;2023-02-22T02:11:01;9.30;33.60
578;DHT22;275;48.492;9.214;2023-02-22T02:13:28;9.50;33.00
578;DHT22;275;48.492;9.214;2023-02-22T02:15:55;9.40;33.30
578;DHT22;275;48.492;9.214;2023-02-22T02:18:25;9.20;33.80
578;DHT22;275;48.492;9.214;2023-02-22T02:21:36;9.40;33.10
578;DHT22;275;48.492;9.214;2023-02-22T02:24:36;9.50;32.90
578;DHT22;275;48.492;9.214;2023-02-22T02:27:12;9.60;32.60
578;DHT22;275;48.492;9.214;2023-02-22T02:32:56;9.60;32.40
578;DHT22;275;48.492;9.214;2023-02-22T02:35:33;9.50;32.30
578;DHT22;275;48.492;9.214;2023-02-22T02:38:09;9.40;32.40
578;DHT22;275;48.492;9.214;2023-02-22T02:40:40;9.20;32.60
578;DHT22;275;48.492;9.214;2023-02-22T02:43:16;9.30;32.60
578;DHT22;275;48.492;9.214;2023-02-22T02:45:50;9.20;32.40
578;DHT22;275;48.492;9.214;2023-02-22T02:48:25;9.10;32.40
578;DHT22;275;48.492;9.214;2023-02-22T02:50:55;8.90;33.00
578;DHT22;275;48.492;9.214;2023-02-22T02:53:26;8.80;33.10
578;DHT22;275;48.492;9.214;2023-02-22T02:55:57;8.80;33.10
578;DHT22;275;48.492;9.214;2023-02-22T02:58:24;8.80;33.20
578;DHT22;275;48.492;9.214;2023-02-22T03:00:53;8.90;34.00
578;DHT22;275;48.492;9.214;2023-02-22T03:09:40;8.90;33.10
578;DHT22;275;48.492;9.214;2023-02-22T03:12:22;8.60;33.70
578;DHT22;275;48.492;9.214;2023-02-22T03:15:02;8.60;33.60
578;DHT22;275;48.492;9.214;2023-02-22T03:17:37;8.50;33.60
578;DHT22;275;48.492;9.214;2023-02-22T03:20:11;8.40;33.80
578;DHT22;275;48.492;9.214;2023-02-22T03:22:44;8.40;33.80
578;DHT22;275;48.492;9.214;2023-02-22T03:25:18;8.40;33.70
578;DHT22;275;48.492;9.214;2023-02-22T03:27:48;8.30;34.00
578;DHT22;275;48.492;9.214;2023-02-22T03:30:21;8.40;34.00
578;DHT22;275;48.492;9.214;2023-02-22T03:32:51;8.30;34.10
578;DHT22;275;48.492;9.214;2023-02-22T03:35:23;8.40;34.00
578;DHT22;275;48.492;9.214;2023-02-22T03:37:54;8.30;34.40
578;DHT22;275;48.492;9.214;2023-02-22T03:40:24;8.10;34.70
578;DHT22;275;48.492;9.214;2023-02-22T03:42:55;8.20;34.50
578;DHT22;275;48.492;9.214;2023-02-22T03:45:24;8.10;34.60
578;DHT22;275;48.492;9.214;2023-02-22T03:47:59;8.00;35.10
578;DHT22;275;48.492;9.214;2023-02-22T03:50:32;8.00;35.20
578;DHT22;275;48.492;9.214;2023-02-22T03:53:01;8.10;34.70
578;DHT22;275;48.492;9.214;2023-02-22T03:55:28;8.10;34.70
578;DHT22;275;48.492;9.214;2023-02-22T03:57:58;8.10;34.70
578;DHT22;275;48.492;9.214;2023-02-22T04:00:27;7.80;35.30
578;DHT22;275;48.492;9.214;2023-02-22T04:02:55;8.00;35.10
578;DHT22;275;48.492;9.214;2023-02-22T04:05:22;7.80;35.40
578;DHT22;275;48.492;9.214;2023-02-22T04:07:51;7.40;36.50
578;DHT22;275;48.492;9.214;2023-02-22T04:10:18;7.30;37.00
578;DHT22;275;48.492;9.214;2023-02-22T04:12:45;7.10;37.40
578;DHT22;275;48.492;9.214;2023-02-22T04:15:14;7.40;36.50
578;DHT22;275;48.492;9.214;2023-02-22T04:17:41;7.60;36.20
578;DHT22;275;48.492;9.214;2023-02-22T04:20:09;7.70;35.90
578;DHT22;275;48.492;9.214;2023-02-22T04:22:38;7.80;35.70
578;DHT22;275;48.492;9.214;2023-02-22T04:25:06;7.90;35.40
578;DHT22;275;48.492;9.214;2023-02-22T04:27:33;8.00;35.30
578;DHT22;275;48.492;9.214;2023-02-22T04:30:00;7.90;35.50
578;DHT22;275;48.492;9.214;2023-02-22T04:32:27;7.80;35.50
578;DHT22;275;48.492;9.214;2023-02-22T04:34:54;7.90;35.60
578;DHT22;275;48.492;9.214;2023-02-22T04:37:21;7.90;35.50
578;DHT22;275;48.492;9.214;2023-02-22T04:39:47;7.90;35.50
578;DHT22;275;48.492;9.214;2023-02-22T04:42:16;8.00;35.00
578;DHT22;275;48.492;9.214;2023-02-22T04:44:42;8.20;34.50
578;DHT22;275;48.492;9.214;2023-02-22T04:47:09;8.10;34.60
578;DHT22;275;48.492;9.214;2023-02-22T04:49:36;8.10;34.50
578;DHT22;275;48.492;9.214;2023-02-22T04:52:03;8.00;34.80
578;DHT22;275;48.492;9.214;2023-02-22T04:54:30;7.80;35.10
578;DHT22;275;48.492;9.214;2023-02-22T04:56:56;7.90;34.70
578;DHT22;275;48.492;9.214;2023-02-22T04:59:25;7.90;34.80
578;DHT22;275;48.492;9.214;2023-02-22T05:01:51;7.90;34.90
578;DHT22;275;48.492;9.214;2023-02-22T05:04:18;7.80;35.10
578;DHT22;275;48.492;9.214;2023-02-22T05:06:46;7.80;35.10
578;DHT22;275;48.492;9.214;2023-02-22T05:09:13;7.90;34.90
578;DHT22;275;48.492;9.214;2023-02-22T05:11:40;7.80;34.80
578;DHT22;275;48.492;9.214;2023-02-22T05:14:07;7.90;34.60
578;DHT22;275;48.492;9.214;2023-02-22T05:16:35;7.70;34.90
578;DHT22;275;48.492;9.214;2023-02-22T05:19:02;7.60;35.30
578;DHT22;275;48.492;9.214;2023-02-22T05:21:29;7.70;35.20
578;DHT22;275;48.492;9.214;2023-02-22T05:23:56;7.50;35.70
578;DHT22;275;48.492;9.214;2023-02-22T05:26:23;7.60;35.60
578;DHT22;275;48.492;9.214;2023-02-22T05:28:49;7.60;35.50
578;DHT22;275;48.492;9.214;2023-02-22T05:31:16;7.80;35.30
578;DHT22;275;48.492;9.214;2023-02-22T05:33:44;7.80;35.10
578;DHT22;275;48.492;9.214;2023-02-22T05:36:11;7.70;35.10
578;DHT22;275;48.492;9.214;2023-02-22T05:38:38;7.80;34.90
578;DHT22;275;48.492;9.214;2023-02-22T05:41:08;7.70;35.90
578;DHT22;275;48.492;9.214;2023-02-22T05:43:35;7.60;35.70
578;DHT22;275;48.492;9.214;2023-02-22T05:46:02;7.70;35.80
578;DHT22;275;48.492;9.214;2023-02-22T05:48:29;7.80;35.50
578;DHT22;275;48.492;9.214;2023-02-22T05:50:57;7.80;35.40
578;DHT22;275;48.492;9.214;2023-02-22T05:53:24;7.80;35.30
578;DHT22;275;48.492;9.214;2023-02-22T05:55:52;7.90;35.30
578;DHT22;275;48.492;9.214;2023-02-22T05:58:19;7.90;35.70
578;DHT22;275;48.492;9.214;2023-02-22T06:00:45;7.30;36.50
578;DHT22;275;48.492;9.214;2023-02-22T06:03:12;7.20;37.00
578;DHT22;275;48.492;9.214;2023-02-22T06:05:39;7.20;37.20
578;DHT22;275;48.492;9.214;2023-02-22T06:08:08;7.20;36.90
578;DHT22;275;48.492;9.214;2023-02-22T06:10:35;7.50;36.30
578;DHT22;275;48.492;9.214;2023-02-22T06:13:03;7.60;36.20
578;DHT22;275;48.492;9.214;2023-02-22T06:15:30;7.70;36.00
578;DHT22;275;48.492;9.214;2023-02-22T06:17:58;7.70;36.30
578;DHT22;275;48.492;9.214;2023-02-22T06:20:27;7.80;36.60
578;DHT22;275;48.492;9.214;2023-02-22T06:22:55;7.80;35.50
578;DHT22;275;48.492;9.214;2023-02-22T06:25:25;7.70;35.80
578;DHT22;275;48.492;9.214;2023-02-22T06:27:53;7.70;36.00
578;DHT22;275;48.492;9.214;2023-02-22T06:30:21;7.80;35.80
578;DHT22;275;48.492;9.214;2023-02-22T06:32:48;7.90;36.10
578;DHT22;275;48.492;9.214;2023-02-22T06:35:16;8.00;35.20
578;DHT22;275;48.492;9.214;2023-02-22T06:37:43;8.20;34.50
578;DHT22;275;48.492;9.214;2023-02-22T06:40:10;8.00;35.00
578;DHT22;275;48.492;9.214;2023-02-22T06:42:39;8.00;34.80
578;DHT22;275;48.492;9.214;2023-02-22T06:45:06;8.00;34.90
578;DHT22;275;48.492;9.214;2023-02-22T06:47:37;8.00;34.90
578;DHT22;275;48.492;9.214;2023-02-22T06:50:05;8.00;34.80
578;DHT22;275;48.492;9.214;2023-02-22T06:52:32;8.20;34.20
578;DHT22;275;48.492;9.214;2023-02-22T06:54:58;8.50;34.00
578;DHT22;275;48.492;9.214;2023-02-22T06:57:25;8.30;34.00
578;DHT22;275;48.492;9.214;2023-02-22T06:59:53;8.40;34.00
578;DHT22;275;48.492;9.214;2023-02-22T07:02:20;8.10;34.60
578;DHT22;275;48.492;9.214;2023-02-22T07:04:47;8.20;34.50
578;DHT22;275;48.492;9.214;2023-02-22T07:07:14;8.50;33.90
578;DHT22;275;48.492;9.214;2023-02-22T07:09:40;8.50;34.00
578;DHT22;275;48.492;9.214;2023-02-22T07:12:07;8.60;33.50
578;DHT22;275;48.492;9.214;2023-02-22T07:14:34;8.80;32.90
578;DHT22;275;48.492;9.214;2023-02-22T07:17:02;8.90;32.50
578;DHT22;275;48.492;9.214;2023-02-22T07:19:29;8.90;32.70
578;DHT22;275;48.492;9.214;2023-02-22T07:21:56;9.00;32.60
578;DHT22;275;48.492;9.214;2023-02-22T07:24:24;9.00;32.80
578;DHT22;275;48.492;9.214;2023-02-22T07:26:52;9.00;32.90
578;DHT22;275;48.492;9.214;2023-02-22T07:29:19;9.00;32.50
578;DHT22;275;48.492;9.214;2023-02-22T07:31:47;8.90;32.40
578;DHT22;275;48.492;9.214;2023-02-22T07:34:15;9.20;32.00
578;DHT22;275;48.492;9.214;2023-02-22T07:36:42;9.20;31.80
578;DHT22;275;48.492;9.214;2023-02-22T07:39:09;8.90;32.50
578;DHT22;275;48.492;9.214;2023-02-22T07:41:36;9.00;32.40
578;DHT22;275;48.492;9.214;2023-02-22T07:44:03;9.10;32.20
578;DHT22;275;48.492;9.214;2023-02-22T07:46:29;9.10;32.80
578;DHT22;275;48.492;9.214;2023-02-22T07:48:56;9.10;32.60
578;DHT22;275;48.492;9.214;2023-02-22T07:51:24;9.20;32.50
578;DHT22;275;48.492;9.214;2023-02-22T07:53:52;9.40;32.20
578;DHT22;275;48.492;9.214;2023-02-22T07:56:18;9.60;31.60
578;DHT22;275;48.492;9.214;2023-02-22T07:58:45;10.00;29.80
578;DHT22;275;48.492;9.214;2023-02-22T08:01:12;10.00;29.90
578;DHT22;275;48.492;9.214;2023-02-22T08:03:39;10.10;29.80
578;DHT22;275;48.492;9.214;2023-02-22T08:06:07;10.00;30.00
578;DHT22;275;48.492;9.214;2023-02-22T08:08:35;10.10;29.80
578;DHT22;275;48.492;9.214;2023-02-22T08:11:02;10.20;29.70
578;DHT22;275;48.492;9.214;2023-02-22T08:13:29;10.10;29.90
578;DHT22;275;48.492;9.214;2023-02-22T08:15:56;10.00;30.00
578;DHT22;275;48.492;9.214;2023-02-22T08:18:24;9.90;31.10
578;DHT22;275;48.492;9.214;2023-02-22T08:20:51;9.80;31.10
578;DHT22;275;48.492;9.214;2023-02-22T08:23:20;9.90;31.10
578;DHT22;275;48.492;9.214;2023-02-22T08:25:48;10.30;29.60
578;DHT22;275;48.492;9.214;2023-02-22T08:28:17;10.20;29.60
578;DHT22;275;48.492;9.214;2023-02-22T08:30:44;10.00;30.00
578;DHT22;275;48.492;9.214;2023-02-22T08:33:13;10.30;29.60
578;DHT22;275;48.492;9.214;2023-02-22T08:35:41;10.20;29.80
578;DHT22;275;48.492;9.214;2023-02-22T08:38:16;10.00;30.10
578;DHT22;275;48.492;9.214;2023-02-22T08:40:44;10.30;29.90
578;DHT22;275;48.492;9.214;2023-02-22T08:43:12;10.30;29.70
578;DHT22;275;48.492;9.214;2023-02-22T08:45:39;10.40;29.80
578;DHT22;275;48.492;9.214;2023-02-22T08:48:05;10.70;29.40
578;DHT22;275;48.492;9.214;2023-02-22T08:50:33;10.50;29.90
578;DHT22;275;48.492;9.214;2023-02-22T08:53:01;10.30;30.20
578;DHT22;275;48.492;9.214;2023-02-22T08:55:30;10.60;29.70
578;DHT22;275;48.492;9.214;2023-02-22T08:57:57;10.90;29.70
578;DHT22;275;48.492;9.214;2023-02-22T09:00:28;11.40;28.70
578;DHT22;275;48.492;9.214;2023-02-22T09:02:57;11.40;28.50
578;DHT22;275;48.492;9.214;2023-02-22T09:05:24;11.60;28.20
578;DHT22;275;48.492;9.214;2023-02-22T09:07:51;11.80;28.00
578;DHT22;275;48.492;9.214;2023-02-22T09:10:21;12.00;27.70
578;DHT22;275;48.492;9.214;2023-02-22T09:12:49;12.10;27.50
578;DHT22;275;48.492;9.214;2023-02-22T09:15:16;12.40;27.10
578;DHT22;275;48.492;9.214;2023-02-22T09:17:44;12.30;27.10
578;DHT22;275;48.492;9.214;2023-02-22T09:20:12;12.50;27.10
578;DHT22;275;48.492;9.214;2023-02-22T09:22:39;12.60;26.90
578;DHT22;275;48.492;9.214;2023-02-22T09:25:06;12.90;26.80
578;DHT22;275;48.492;9.214;2023-02-22T09:27:33;12.80;26.90
578;DHT22;275;48.492;9.214;2023-02-22T09:30:00;13.20;26.50
578;DHT22;275;48.492;9.214;2023-02-22T09:32:27;13.20;26.50
578;DHT22;275;48.492;9.214;2023-02-22T09:34:56;13.20;26.50
578;DHT22;275;48.492;9.214;2023-02-22T09:37:22;13.40;26.40
578;DHT22;275;48.492;9.214;2023-02-22T09:39:49;12.90;26.90
578;DHT22;275;48.492;9.214;2023-02-22T09:42:23;12.60;27.30
578;DHT22;275;48.492;9.214;2023-02-22T09:45:00;12.30;28.10
578;DHT22;275;48.492;9.214;2023-02-22T09:47:36;13.00;26.80
578;DHT22;275;48.492;9.214;2023-02-22T09:50:07;12.90;27.10
578;DHT22;275;48.492;9.214;2023-02-22T09:52:46;12.60;27.70
578;DHT22;275;48.492;9.214;2023-02-22T09:55:25;13.20;27.00
578;DHT22;275;48.492;9.214;2023-02-22T09:57:56;13.90;26.00
578;DHT22;275;48.492;9.214;2023-02-22T10:00:28;14.30;25.30
578;DHT22;275;48.492;9.214;2023-02-22T10:03:07;13.90;25.80
578;DHT22;275;48.492;9.214;2023-02-22T10:05:41;14.30;25.20
578;DHT22;275;48.492;9.214;2023-02-22T10:08:11;14.40;25.10
578;DHT22;275;48.492;9.214;2023-02-22T10:10:40;14.90;24.80
578;DHT22;275;48.492;9.214;2023-02-22T10:13:18;15.70;23.70
578;DHT22;275;48.492;9.214;2023-02-22T10:15:52;16.10;23.00
578;DHT22;275;48.492;9.214;2023-02-22T10:18:45;16.70;22.30
578;DHT22;275;48.492;9.214;2023-02-22T10:21:27;17.00;21.90
578;DHT22;275;48.492;9.214;2023-02-22T10:24:04;17.30;21.80
578;DHT22;275;48.492;9.214;2023-02-22T10:26:36;17.50;21.50
578;DHT22;275;48.492;9.214;2023-02-22T10:29:08;17.50;21.30
578;DHT22;275;48.492;9.214;2023-02-22T10:31:39;17.50;21.40
578;DHT22;275;48.492;9.214;2023-02-22T10:34:12;17.30;21.60
578;DHT22;275;48.492;9.214;2023-02-22T10:36:41;17.40;21.70
578;DHT22;275;48.492;9.214;2023-02-22T10:39:23;17.80;21.30
578;DHT22;275;48.492;9.214;2023-02-22T10:41:54;18.00;20.70
578;DHT22;275;48.492;9.214;2023-02-22T10:44:22;17.90;21.00
578;DHT22;275;48.492;9.214;2023-02-22T10:46:50;17.50;21.50
578;DHT22;275;48.492;9.214;2023-02-22T10:49:20;17.50;21.50
578;DHT22;275;48.492;9.214;2023-02-22T10:52:00;17.70;21.10
578;DHT22;275;48.492;9.214;2023-02-22T10:54:30;18.00;21.00
578;DHT22;275;48.492;9.214;2023-02-22T10:56:59;18.60;20.00
578;DHT22;275;48.492;9.214;2023-02-22T10:59:30;18.70;19.70
578;DHT22;275;48.492;9.214;2023-02-22T11:01:59;19.10;19.20
578;DHT22;275;48.492;9.214;2023-02-22T11:04:29;19.40;19.20
578;DHT22;275;48.492;9.214;2023-02-22T11:07:23;20.00;18.40
578;DHT22;275;48.492;9.214;2023-02-22T11:09:53;20.80;17.40
578;DHT22;275;48.492;9.214;2023-02-22T11:12:26;21.10;17.00
578;DHT22;275;48.492;9.214;2023-02-22T11:14:54;21.60;16.90
578;DHT22;275;48.492;9.214;2023-02-22T11:17:28;22.40;16.20
578;DHT22;275;48.492;9.214;2023-02-22T11:19:56;22.70;15.40
578;DHT22;275;48.492;9.214;2023-02-22T11:22:26;22.50;15.60
578;DHT22;275;48.492;9.214;2023-02-22T11:24:57;22.10;15.60
578;DHT22;275;48.492;9.214;2023-02-22T11:27:34;21.10;16.40
578;DHT22;275;48.492;9.214;2023-02-22T11:30:21;19.80;17.80
578;DHT22;275;48.492;9.214;2023-02-22T11:32:54;19.80;17.80
578;DHT22;275;48.492;9.214;2023-02-22T11:35:47;19.40;17.80
578;DHT22;275;48.492;9.214;2023-02-22T11:38:20;18.70;18.50
578;DHT22;275;48.492;9.214;2023-02-22T11:41:05;18.50;18.60
578;DHT22;275;48.492;9.214;2023-02-22T11:43:33;18.40;18.70
578;DHT22;275;48.492;9.214;2023-02-22T11:46:03;18.80;18.60
578;DHT22;275;48.492;9.214;2023-02-22T11:48:32;18.80;18.40
578;DHT22;275;48.492;9.214;2023-02-22T11:51:16;18.20;19.10
578;DHT22;275;48.492;9.214;2023-02-22T11:54:09;18.50;18.20
578;DHT22;275;48.492;9.214;2023-02-22T11:56:39;17.70;19.10
578;DHT22;275;48.492;9.214;2023-02-22T11:59:14;17.50;19.30
578;DHT22;275;48.492;9.214;2023-02-22T12:01:49;18.00;18.90
578;DHT22;275;48.492;9.214;2023-02-22T12:04:36;18.20;18.60
578;DHT22;275;48.492;9.214;2023-02-22T12:07:25;18.20;18.50
578;DHT22;275;48.492;9.214;2023-02-22T12:10:02;17.60;19.20
578;DHT22;275;48.492;9.214;2023-02-22T12:12:40;17.40;19.50
578;DHT22;275;48.492;9.214;2023-02-22T12:15:26;18.00;18.20
578;DHT22;275;48.492;9.214;2023-02-22T12:17:59;18.60;17.90
578;DHT22;275;48.492;9.214;2023-02-22T12:20:30;19.30;17.30
578;DHT22;275;48.492;9.214;2023-02-22T12:23:05;19.70;16.70
578;DHT22;275;48.492;9.214;2023-02-22T12:25:51;19.40;16.40
578;DHT22;275;48.492;9.214;2023-02-22T12:28:26;19.20;17.00
578;DHT22;275;48.492;9.214;2023-02-22T12:31:03;18.60;17.30
578;DHT22;275;48.492;9.214;2023-02-22T12:33:41;18.50;17.30
578;DHT22;275;48.492;9.214;2023-02-22T12:36:13;18.60;17.70
578;DHT22;275;48.492;9.214;2023-02-22T12:38:42;18.70;17.80
578;DHT22;275;48.492;9.214;2023-02-22T12:41:21;19.10;17.60
578;DHT22;275;48.492;9.214;2023-02-22T12:43:51;18.70;18.20
578;DHT22;275;48.492;9.214;2023-02-22T12:46:21;19.50;17.90
578;DHT22;275;48.492;9.214;2023-02-22T12:48:53;21.70;15.70
578;DHT22;275;48.492;9.214;2023-02-22T12:51:28;22.10;15.30
578;DHT22;275;48.492;9.214;2023-02-22T12:54:05;23.50;14.20
578;DHT22;275;48.492;9.214;2023-02-22T12:56:40;24.30;13.70
578;DHT22;275;48.492;9.214;2023-02-22T12:59:16;25.10;12.80
578;DHT22;275;48.492;9.214;2023-02-22T13:01:49;26.50;11.30
578;DHT22;275;48.492;9.214;2023-02-22T13:04:16;27.60;10.50
578;DHT22;275;48.492;9.214;2023-02-22T13:06:51;26.80;10.90
578;DHT22;275;48.492;9.214;2023-02-22T13:09:46;26.90;10.40
578;DHT22;275;48.492;9.214;2023-02-22T13:12:18;26.50;10.80
578;DHT22;275;48.492;9.214;2023-02-22T13:14:57;24.90;11.90
578;DHT22;275;48.492;9.214;2023-02-22T13:17:31;26.00;11.50
578;DHT22;275;48.492;9.214;2023-02-22T13:20:08;26.80;10.60
578;DHT22;275;48.492;9.214;2023-02-22T13:22:43;27.20;9.80
578;DHT22;275;48.492;9.214;2023-02-22T13:25:14;26.60;10.50
578;DHT22;275;48.492;9.214;2023-02-22T13:27:47;26.40;10.50
578;DHT22;275;48.492;9.214;2023-02-22T13:30:20;27.10;10.40
578;DHT22;275;48.492;9.214;2023-02-22T13:33:09;27.90;9.50
578;DHT22;275;48.492;9.214;2023-02-22T13:36:00;28.30;8.90
578;DHT22;275;48.492;9.214;2023-02-22T13:39:07;27.40;9.50
578;DHT22;275;48.492;9.214;2023-02-22T13:41:49;26.40;10.40
578;DHT22;275;48.492;9.214;2023-02-22T13:44:59;24.90;11.80
578;DHT22;275;48.492;9.214;2023-02-22T13:47:49;22.50;13.90
578;DHT22;275;48.492;9.214;2023-02-22T13:50:42;20.30;16.30
578;DHT22;275;48.492;9.214;2023-02-22T13:53:19;20.20;16.40
578;DHT22;275;48.492;9.214;2023-02-22T13:55:51;19.40;17.30
578;DHT22;275;48.492;9.214;2023-02-22T13:58:21;19.30;17.60
578;DHT22;275;48.492;9.214;2023-02-22T14:00:51;20.00;17.00
578;DHT22;275;48.492;9.214;2023-02-22T14:03:37;20.60;16.00
578;DHT22;275;48.492;9.214;2023-02-22T14:06:09;20.50;16.40
578;DHT22;275;48.492;9.214;2023-02-22T14:08:43;20.90;16.20
578;DHT22;275;48.492;9.214;2023-02-22T14:11:44;21.10;16.00
578;DHT22;275;48.492;9.214;2023-02-22T14:14:16;20.50;16.50
578;DHT22;275;48.492;9.214;2023-02-22T14:17:14;20.70;16.40
578;DHT22;275;48.492;9.214;2023-02-22T14:19:42;19.40;17.80
578;DHT22;275;48.492;9.214;2023-02-22T14:22:27;19.40;17.80
578;DHT22;275;48.492;9.214;2023-02-22T14:24:54;19.50;17.50
578;DHT22;275;48.492;9.214;2023-02-22T14:27:22;19.80;17.10
578;DHT22;275;48.492;9.214;2023-02-22T14:29:50;20.20;16.80
578;DHT22;275;48.492;9.214;2023-02-22T14:32:19;21.40;15.60
578;DHT22;275;48.492;9.214;2023-02-22T14:34:59;21.90;14.60
578;DHT22;275;48.492;9.214;2023-02-22T14:37:34;22.00;14.30
578;DHT22;275;48.492;9.214;2023-02-22T14:40:07;21.80;14.80
578;DHT22;275;48.492;9.214;2023-02-22T14:42:46;21.90;14.50
578;DHT22;275;48.492;9.214;2023-02-22T14:45:21;21.40;14.90
578;DHT22;275;48.492;9.214;2023-02-22T14:47:53;21.40;14.80
578;DHT22;275;48.492;9.214;2023-02-22T14:50:32;20.70;15.50
578;DHT22;275;48.492;9.214;2023-02-22T14:53:02;19.60;17.10
578;DHT22;275;48.492;9.214;2023-02-22T14:55:36;19.30;17.50
578;DHT22;275;48.492;9.214;2023-02-22T14:58:09;18.30;18.60
578;DHT22;275;48.492;9.214;2023-02-22T15:00:39;18.30;18.80
578;DHT22;275;48.492;9.214;2023-02-22T15:03:18;18.20;18.90
578;DHT22;275;48.492;9.214;2023-02-22T15:05:51;17.70;19.60
578;DHT22;275;48.492;9.214;2023-02-22T15:08:18;17.60;20.10
578;DHT22;275;48.492;9.214;2023-02-22T15:10:52;17.90;20.50
578;DHT22;275;48.492;9.214;2023-02-22T15:13:22;17.60;20.40
578;DHT22;275;48.492;9.214;2023-02-22T15:15:55;17.40;20.90
578;DHT22;275;48.492;9.214;2023-02-22T15:18:28;17.00;21.80
578;DHT22;275;48.492;9.214;2023-02-22T15:21:03;17.10;21.80
578;DHT22;275;48.492;9.214;2023-02-22T15:23:39;17.00;22.60
578;DHT22;275;48.492;9.214;2023-02-22T15:26:07;17.10;22.40
578;DHT22;275;48.492;9.214;2023-02-22T15:28:41;17.30;22.30
578;DHT22;275;48.492;9.214;2023-02-22T15:31:24;16.60;23.30
578;DHT22;275;48.492;9.214;2023-02-22T15:33:53;16.60;23.80
578;DHT22;275;48.492;9.214;2023-02-22T15:36:22;16.50;24.10
578;DHT22;275;48.492;9.214;2023-02-22T15:38:52;16.40;24.30
578;DHT22;275;48.492;9.214;2023-02-22T15:41:24;16.40;24.70
578;DHT22;275;48.492;9.214;2023-02-22T15:43:59;16.10;25.30
578;DHT22;275;48.492;9.214;2023-02-22T15:46:27;16.20;25.50
578;DHT22;275;48.492;9.214;2023-02-22T15:49:22;16.70;24.90
578;DHT22;275;48.492;9.214;2023-02-22T15:52:03;16.60;25.20
578;DHT22;275;48.492;9.214;2023-02-22T15:54:43;16.50;25.80
578;DHT22;275;48.492;9.214;2023-02-22T15:57:14;16.70;25.60
578;DHT22;275;48.492;9.214;2023-02-22T15:59:44;16.40;26.10
578;DHT22;275;48.492;9.214;2023-02-22T16:02:29;16.20;26.60
578;DHT22;275;48.492;9.214;2023-02-22T16:05:02;16.40;26.30
578;DHT22;275;48.492;9.214;2023-02-22T16:07:32;16.20;26.70
578;DHT22;275;48.492;9.214;2023-02-22T16:10:02;16.00;26.90
578;DHT22;275;48.492;9.214;2023-02-22T16:12:34;15.70;27.40
578;DHT22;275;48.492;9.214;2023-02-22T16:15:01;16.20;26.50
578;DHT22;275;48.492;9.214;2023-02-22T16:17:35;16.10;26.70
578;DHT22;275;48.492;9.214;2023-02-22T16:20:31;16.40;26.10
578;DHT22;275;48.492;9.214;2023-02-22T16:22:58;16.60;26.10
578;DHT22;275;48.492;9.214;2023-02-22T16:25:30;16.70;25.90
578;DHT22;275;48.492;9.214;2023-02-22T16:28:01;16.70;25.90
578;DHT22;275;48.492;9.214;2023-02-22T16:30:32;16.60;26.20
578;DHT22;275;48.492;9.214;2023-02-22T16:33:02;16.70;26.10
578;DHT22;275;48.492;9.214;2023-02-22T16:35:31;16.80;25.70
578;DHT22;275;48.492;9.214;2023-02-22T16:38:01;16.60;25.90
578;DHT22;275;48.492;9.214;2023-02-22T16:40:31;17.00;25.40
578;DHT22;275;48.492;9.214;2023-02-22T16:43:00;16.60;25.90
578;DHT22;275;48.492;9.214;2023-02-22T16:45:28;16.10;26.40
578;DHT22;275;48.492;9.214;2023-02-22T16:47:55;16.20;26.30
578;DHT22;275;48.492;9.214;2023-02-22T16:50:22;16.50;25.80
578;DHT22;275;48.492;9.214;2023-02-22T16:52:52;16.70;25.30
578;DHT22;275;48.492;9.214;2023-02-22T16:55:23;16.80;25.30
578;DHT22;275;48.492;9.214;2023-02-22T16:57:54;17.00;24.80
578;DHT22;275;48.492;9.214;2023-02-22T17:00:26;16.80;25.20
578;DHT22;275;48.492;9.214;2023-02-22T17:02:56;17.00;24.80
578;DHT22;275;48.492;9.214;2023-02-22T17:05:24;16.90;24.90
578;DHT22;275;48.492;9.214;2023-02-22T17:07:52;16.90;24.80
578;DHT22;275;48.492;9.214;2023-02-22T17:10:19;16.80;25.10
578;DHT22;275;48.492;9.214;2023-02-22T17:12:49;17.00;24.70
578;DHT22;275;48.492;9.214;2023-02-22T17:15:19;17.00;24.50
578;DHT22;275;48.492;9.214;2023-02-22T17:17:47;17.00;24.50
578;DHT22;275;48.492;9.214;2023-02-22T17:20:14;16.90;24.60